Time;durP1;ratioP1;P1;durP2;ratioP2;P2;SDS_P1;SDS_P2;PMS_P1;PMS_P2;Temp;Humidity;BMP_temperature;BMP_pressure;BME280_temperature;BME280_humidity;BME280_pressure;Samples;Min_cycle;Max_cycle;Signal;HPM_P1;HPM_P2
2022/08/17 00:02:32;;;;;;;8.35;5.43;;;;;;;21.50;92.33;100800.28;6250498;28;20046;-79
2022/08/17 00:05:39;;;;;;;10.77;6.03;;;;;;;21.44;92.43;100800.91;6250406;28;20053;-79
2022/08/17 00:08:43;;;;;;;7.30;4.82;;;;;;;21.37;93.62;100801.66;6250164;28;20049;-79
2022/08/17 00:11:45;;;;;;;8.90;5.18;;;;;;;21.29;94.56;100792.50;6250058;28;20050;-79
2022/08/17 00:14:49;;;;;;;8.50;4.95;;;;;;;21.26;95.01;100797.31;6250001;28;20441;-79
2022/08/17 00:17:52;;;;;;;10.82;5.53;;;;;;;21.21;96.48;100797.78;6249984;28;20081;-79
2022/08/17 00:20:53;;;;;;;10.25;6.13;;;;;;;21.18;96.50;100803.41;6249981;28;20120;-78
2022/08/17 00:23:54;;;;;;;11.65;6.43;;;;;;;21.17;97.25;100798.22;6249853;28;20054;-79
2022/08/17 00:26:56;;;;;;;11.43;7.10;;;;;;;21.17;97.65;100799.06;6249921;28;20045;-79
2022/08/17 00:29:58;;;;;;;13.40;7.50;;;;;;;21.18;97.91;100803.41;6249650;28;20437;-79
2022/08/17 00:33:00;;;;;;;13.70;8.23;;;;;;;21.21;97.84;100803.13;6249632;28;20060;-79
2022/08/17 00:36:02;;;;;;;9.75;6.93;;;;;;;21.19;99.04;100799.75;6249482;28;20053;-78
2022/08/17 00:39:04;;;;;;;11.60;7.50;;;;;;;21.16;98.21;100808.03;6249659;28;20441;-79
2022/08/17 00:42:12;;;;;;;10.48;7.00;;;;;;;21.18;99.20;100800.75;6249390;28;20140;-78
2022/08/17 00:45:19;;;;;;;13.35;7.40;;;;;;;21.19;99.28;100793.56;6248953;28;20485;-79
2022/08/17 00:48:21;;;;;;;14.93;8.00;;;;;;;21.18;99.74;100791.88;6249454;28;20053;-78
2022/08/17 00:51:30;;;;;;;11.93;7.75;;;;;;;21.18;100.00;100794.56;6248778;28;20433;-78
2022/08/17 00:54:35;;;;;;;13.70;8.40;;;;;;;21.15;100.00;100792.16;6248475;28;20064;-78
2022/08/17 00:57:40;;;;;;;14.52;8.55;;;;;;;21.13;100.00;100791.50;6249215;28;20053;-78
2022/08/17 01:00:46;;;;;;;12.15;8.20;;;;;;;21.10;100.00;100786.44;6249348;28;20049;-79
2022/08/17 01:03:48;;;;;;;15.13;8.68;;;;;;;21.07;100.00;100790.22;6249112;28;20417;-79
2022/08/17 01:06:51;;;;;;;16.83;9.65;;;;;;;21.06;100.00;100793.06;6248683;28;20049;-79
2022/08/17 01:09:54;;;;;;;11.13;7.55;;;;;;;21.05;100.00;100788.72;6248843;28;20424;-78
2022/08/17 01:12:56;;;;;;;12.10;8.43;;;;;;;20.99;100.00;100792.84;6248995;28;20073;-78
2022/08/17 01:16:01;;;;;;;13.30;8.48;;;;;;;20.99;100.00;100792.84;6248561;28;20050;-78
2022/08/17 01:19:14;;;;;;;13.75;8.18;;;;;;;20.92;100.00;100792.56;6248661;28;20041;-78
2022/08/17 01:22:20;;;;;;;12.35;8.20;;;;;;;20.89;100.00;100789.34;6248342;28;20049;-79
2022/08/17 01:25:21;;;;;;;12.60;8.65;;;;;;;20.85;100.00;100786.16;6248925;28;20050;-78
2022/08/17 01:28:26;;;;;;;13.85;8.93;;;;;;;20.81;100.00;100789.25;6248295;28;20401;-79
2022/08/17 01:31:32;;;;;;;14.68;8.60;;;;;;;20.76;100.00;100789.69;6248445;28;20041;-79
2022/08/17 01:34:34;;;;;;;13.00;8.80;;;;;;;20.73;100.00;100793.50;6248114;28;20056;-79
2022/08/17 01:37:39;;;;;;;14.60;8.75;;;;;;;20.72;100.00;100796.31;6248522;28;20073;-78
2022/08/17 01:40:46;;;;;;;14.45;8.68;;;;;;;20.71;100.00;100794.63;6247966;28;20428;-79
2022/08/17 01:43:51;;;;;;;12.70;8.38;;;;;;;20.67;100.00;100791.41;6247632;28;20080;-78
2022/08/17 01:46:53;;;;;;;11.13;7.25;;;;;;;20.64;100.00;100791.69;6248190;28;20053;-80
2022/08/17 01:49:55;;;;;;;11.75;7.80;;;;;;;20.61;100.00;100789.31;6247970;28;20046;-78
2022/08/17 01:53:08;;;;;;;12.20;7.13;;;;;;;20.54;100.00;100795.41;6248328;28;20053;-78
2022/08/17 01:56:13;;;;;;;11.85;7.85;;;;;;;20.47;100.00;100792.41;6248063;28;20053;-79
2022/08/17 01:59:15;;;;;;;13.73;8.38;;;;;;;20.41;100.00;100796.50;6248238;28;20512;-78
2022/08/17 02:02:16;;;;;;;13.98;8.32;;;;;;;20.35;100.00;100796.22;6247654;28;20045;-79
2022/08/17 02:05:18;;;;;;;15.35;8.65;;;;;;;20.30;100.00;100801.16;6247809;28;20049;-79
2022/08/17 02:08:21;;;;;;;16.23;8.27;;;;;;;20.24;100.00;100800.75;6247809;28;20053;-78
2022/08/17 02:11:23;;;;;;;14.38;8.27;;;;;;;20.19;100.00;100794.16;6247448;28;20045;-79
2022/08/17 02:14:25;;;;;;;12.02;8.07;;;;;;;20.13;100.00;100790.25;6247701;28;20049;-79
2022/08/17 02:17:27;;;;;;;12.52;8.70;;;;;;;20.13;100.00;100790.25;6247807;28;20045;-78
2022/08/17 02:20:30;;;;;;;12.98;8.18;;;;;;;20.12;100.00;100782.38;6247542;28;20056;-79
2022/08/17 02:23:36;;;;;;;17.08;8.90;;;;;;;20.05;100.00;100781.28;6248101;28;20063;-79
2022/08/17 02:26:37;;;;;;;16.80;8.73;;;;;;;19.99;100.00;100778.19;6247850;28;20057;-79
2022/08/17 02:29:38;;;;;;;12.45;8.30;;;;;;;19.94;100.00;100783.09;6247841;28;20049;-79
2022/08/17 02:32:40;;;;;;;13.30;7.68;;;;;;;19.94;100.00;100785.78;6233175;28;20513;-79
2022/08/17 02:35:42;;;;;;;16.17;9.05;;;;;;;19.95;100.00;100794.63;6223170;28;20046;-80
2022/08/17 02:38:45;;;;;;;13.60;8.60;;;;;;;19.93;100.00;100797.41;6223719;28;20173;-79
2022/08/17 02:41:46;;;;;;;13.05;8.20;;;;;;;19.88;100.00;100791.66;6222953;28;20058;-79
2022/08/17 02:44:47;;;;;;;17.20;9.00;;;;;;;19.90;100.00;100787.03;6226032;28;20076;-79
2022/08/17 02:47:49;;;;;;;14.35;8.75;;;;;;;19.89;100.00;100788.00;6246186;28;20056;-78
2022/08/17 02:50:51;;;;;;;13.07;8.65;;;;;;;19.83;100.00;100782.41;6247605;28;20152;-79
2022/08/17 02:53:54;;;;;;;14.40;9.55;;;;;;;19.80;100.00;100780.84;6242176;28;20045;-78
2022/08/17 02:56:55;;;;;;;12.48;8.88;;;;;;;19.81;100.00;100781.72;6234736;28;20492;-79
2022/08/17 02:59:56;;;;;;;16.63;9.73;;;;;;;19.80;100.00;100782.66;6232535;28;20045;-77
2022/08/17 03:02:58;;;;;;;15.60;9.50;;;;;;;19.73;100.00;100775.25;6232561;28;20453;-79
2022/08/17 03:06:00;;;;;;;16.88;9.52;;;;;;;19.72;100.00;100784.22;6244521;28;20045;-78
2022/08/17 03:09:02;;;;;;;16.90;8.80;;;;;;;19.75;100.00;100786.59;6248061;28;20551;-79
2022/08/17 03:12:05;;;;;;;15.13;9.38;;;;;;;19.74;100.00;100774.25;6247614;28;20535;-79
2022/08/17 03:15:10;;;;;;;20.08;9.43;;;;;;;19.73;100.00;100763.75;6247259;28;20116;-78
2022/08/17 03:18:12;;;;;;;15.80;9.25;;;;;;;19.72;100.00;100764.72;6247508;28;20050;-79
2022/08/17 03:21:17;;;;;;;16.42;9.50;;;;;;;19.67;100.00;100761.66;6244479;28;20541;-78
2022/08/17 03:24:20;;;;;;;12.88;8.23;;;;;;;19.63;100.00;100765.56;6237972;28;20505;-78
2022/08/17 03:27:21;;;;;;;13.43;8.55;;;;;;;19.57;100.00;100774.06;6238181;28;20141;-79
2022/08/17 03:30:24;;;;;;;16.05;8.38;;;;;;;19.47;100.00;100777.56;6248775;28;20050;-79
2022/08/17 03:33:25;;;;;;;16.40;9.88;;;;;;;19.44;100.00;100783.19;6252115;28;20056;-79
2022/08/17 03:36:26;;;;;;;14.52;9.15;;;;;;;19.43;100.00;100784.16;6251354;28;20049;-79
2022/08/17 03:39:29;;;;;;;13.40;8.25;;;;;;;19.43;100.00;100781.50;6251917;28;20064;-79
2022/08/17 03:42:32;;;;;;;14.65;9.27;;;;;;;19.38;100.00;100781.06;6251059;28;20422;-78
2022/08/17 03:58:52;;;;;;;12.35;8.38;;;;;;;19.16;100.00;100775.97;6251279;28;20053;-78
2022/08/17 04:01:57;;;;;;;16.85;7.70;;;;;;;19.16;100.00;100771.47;6250781;28;20508;-78
2022/08/17 04:04:59;;;;;;;12.77;8.40;;;;;;;19.18;100.00;100774.03;6250832;28;20184;-79
2022/08/17 04:08:00;;;;;;;12.35;8.10;;;;;;;19.15;100.00;100774.28;6250676;28;20049;-78
2022/08/17 04:11:03;;;;;;;11.65;7.78;;;;;;;19.12;100.00;100782.53;6250060;28;20049;-77
2022/08/17 04:14:05;;;;;;;13.32;8.52;;;;;;;19.10;100.00;100776.53;6250365;28;20398;-78
2022/08/17 04:17:07;;;;;;;12.73;8.15;;;;;;;19.07;100.00;100782.13;6250837;28;20052;-79
2022/08/17 04:20:09;;;;;;;12.95;8.00;;;;;;;19.07;100.00;100788.28;6250239;28;20056;-78
2022/08/17 04:23:14;;;;;;;12.75;8.52;;;;;;;19.06;100.00;100785.75;6250242;28;20052;-78
2022/08/17 04:26:17;;;;;;;12.10;8.23;;;;;;;19.06;100.00;100783.94;6249814;28;20046;-78
2022/08/17 04:29:20;;;;;;;15.30;9.23;;;;;;;18.99;100.00;100788.97;6248937;28;20080;-79
2022/08/17 04:32:21;;;;;;;12.52;8.70;;;;;;;18.95;100.00;100790.22;6249696;28;20050;-78
2022/08/17 04:35:25;;;;;;;17.27;8.77;;;;;;;18.95;100.00;100792.88;6249928;28;20643;-78
2022/08/17 04:38:29;;;;;;;16.02;9.50;;;;;;;18.98;100.00;100795.25;6249462;28;20060;-78
2022/08/17 04:44:51;;;;;;;11.88;8.20;;;;;;;19.04;100.00;100793.06;6249624;28;20943;-77
2022/08/17 04:47:52;;;;;;;15.77;7.93;;;;;;;19.01;100.00;100802.16;6249830;28;20064;-78
2022/08/17 04:50:53;;;;;;;11.65;8.13;;;;;;;19.00;100.00;100803.13;6249307;28;20049;-78
2022/08/17 04:53:57;;;;;;;13.48;8.55;;;;;;;19.03;100.00;100810.88;6249779;28;20045;-78
2022/08/17 04:57:00;;;;;;;15.35;7.93;;;;;;;19.07;100.00;100814.91;6249141;28;20053;-77
2022/08/17 05:00:01;;;;;;;11.57;7.72;;;;;;;19.11;100.00;100812.84;6248962;28;20420;-78
2022/08/17 05:03:04;;;;;;;13.43;8.27;;;;;;;19.14;100.00;100815.25;6249331;28;20053;-78
2022/08/17 05:06:06;;;;;;;14.07;8.70;;;;;;;19.12;100.00;100806.53;6248944;28;20050;-78
2022/08/17 05:09:07;;;;;;;11.00;7.32;;;;;;;19.14;100.00;100821.41;6249016;28;20068;-78
2022/08/17 05:12:10;;;;;;;10.93;7.75;;;;;;;19.20;100.00;100820.00;6248474;28;20056;-78
2022/08/17 05:15:14;;;;;;;15.15;8.25;;;;;;;19.26;100.00;100820.34;6248894;28;20516;-77
2022/08/17 05:18:16;;;;;;;14.00;8.35;;;;;;;19.29;100.00;100827.19;6248690;28;20052;-78
2022/08/17 05:21:18;;;;;;;12.35;7.75;;;;;;;19.32;100.00;100826.09;6248602;28;20068;-77
2022/08/17 05:24:20;;;;;;;12.73;8.07;;;;;;;19.36;100.00;100825.69;6248444;28;20076;-78
2022/08/17 05:27:22;;;;;;;11.07;7.65;;;;;;;19.39;100.00;100825.38;6248232;28;20053;-78
2022/08/17 05:30:24;;;;;;;9.95;6.57;;;;;;;19.45;100.00;100829.34;6241651;28;20049;-78
2022/08/17 05:33:28;;;;;;;11.07;6.93;;;;;;;19.51;100.00;100826.97;6231662;28;20053;-78
2022/08/17 05:36:29;;;;;;;10.77;7.20;;;;;;;19.56;100.00;100831.88;6231896;28;20045;-77
2022/08/17 05:39:31;;;;;;;8.98;5.97;;;;;;;19.62;100.00;100835.84;6232098;28;20053;-78
2022/08/17 05:42:34;;;;;;;10.05;6.90;;;;;;;19.65;100.00;100841.75;6228523;28;20557;-78
2022/08/17 05:45:39;;;;;;;12.20;6.97;;;;;;;19.69;100.00;100845.00;6230804;28;20473;-77
2022/08/17 05:48:44;;;;;;;14.68;6.13;;;;;;;19.75;100.00;100844.44;6223735;28;20056;-77
2022/08/17 05:52:02;;;;;;;10.13;6.60;;;;;;;19.83;100.00;100841.06;6223357;28;20052;-77
2022/08/17 05:55:13;;;;;;;11.55;6.75;;;;;;;19.86;100.00;100848.81;6223528;28;20053;-78
2022/08/17 05:58:27;;;;;;;11.32;6.53;;;;;;;19.89;100.00;100845.84;6228556;28;20046;-78
2022/08/17 06:01:38;;;;;;;10.95;6.85;;;;;;;19.91;100.00;100844.72;6248237;28;20049;-78
2022/08/17 06:04:54;;;;;;;14.68;7.38;;;;;;;19.96;100.00;100854.97;6248209;28;20508;-78
2022/08/17 06:08:02;;;;;;;8.88;6.47;;;;;;;19.99;100.00;100844.88;6243938;28;20053;-78
2022/08/17 06:11:14;;;;;;;12.35;6.93;;;;;;;20.05;100.00;100845.31;6239891;28;20049;-78
2022/08/17 06:14:32;;;;;;;11.30;5.68;;;;;;;20.10;100.00;100845.72;6238756;28;20046;-78
2022/08/17 06:17:34;;;;;;;9.20;6.00;;;;;;;20.15;100.00;100844.31;6247159;28;20053;-77
2022/08/17 06:20:43;;;;;;;8.63;5.50;;;;;;;20.21;100.00;100843.75;6240508;28;20049;-77
2022/08/17 06:23:47;;;;;;;;;;;;;;;20.27;100.00;100840.50;6239196;28;20050;-77
2022/08/17 06:26:49;;;;;;;8.98;4.47;;;;;;;20.35;100.00;100839.81;6246480;28;19932;-77
2022/08/17 06:29:57;;;;;;;7.03;4.80;;;;;;;20.43;100.00;100839.06;6246158;28;20056;-77
2022/08/17 06:33:05;;;;;;;7.35;5.45;;;;;;;20.49;100.00;100834.03;6245695;28;20041;-76
2022/08/17 06:36:22;;;;;;;9.98;4.93;;;;;;;20.56;100.00;100839.63;6246651;28;20049;-77
2022/08/17 06:39:39;;;;;;;5.47;4.38;;;;;;;20.63;100.00;100830.06;6247708;28;20058;-77
2022/08/17 06:42:49;;;;;;;5.30;4.20;;;;;;;20.71;100.00;100832.00;6247717;28;20421;-77
2022/08/17 06:45:57;;;;;;;8.60;4.72;;;;;;;20.75;100.00;100826.22;6247647;28;20050;-77
2022/08/17 06:49:11;;;;;;;6.05;4.45;;;;;;;20.80;100.00;100828.47;6247744;28;20060;-77
2022/08/17 06:52:19;;;;;;;6.07;4.03;;;;;;;20.86;100.00;100830.56;6247161;28;20416;-78
2022/08/17 06:55:25;;;;;;;4.75;3.83;;;;;;;20.91;100.00;100827.44;6251980;28;20420;-77
2022/08/17 06:58:30;;;;;;;5.65;4.07;;;;;;;20.95;100.00;100823.50;6252067;28;20053;-76
2022/08/17 07:01:37;;;;;;;7.03;4.10;;;;;;;20.97;100.00;100829.53;6252217;28;20412;-77
2022/08/17 07:04:38;;;;;;;7.60;5.13;;;;;;;20.99;100.00;100833.75;6252195;28;20049;-77
2022/08/17 07:08:02;;;;;;;8.82;4.50;;;;;;;21.01;100.00;100834.44;6251719;28;20046;-78
2022/08/17 07:11:08;;;;;;;10.23;5.00;;;;;;;21.03;100.00;100827.13;6251640;28;20061;-78
2022/08/17 07:14:27;;;;;;;6.13;4.57;;;;;;;21.06;100.00;100827.81;6252120;28;20501;-78
2022/08/17 07:17:29;;;;;;;6.22;3.72;;;;;;;21.11;100.00;100826.38;6251796;28;20062;-77
2022/08/17 07:20:32;;;;;;;8.57;4.72;;;;;;;21.17;100.00;100830.31;6237750;28;20068;-77
2022/08/17 07:23:47;;;;;;;6.03;4.50;;;;;;;21.25;100.00;100827.69;6242524;28;20053;-78
2022/08/17 07:27:03;;;;;;;6.20;4.25;;;;;;;21.33;100.00;100833.19;6236393;28;20058;-78
2022/08/17 07:30:08;;;;;;;7.85;3.92;;;;;;;21.39;100.00;100829.06;6251535;28;20056;-77
2022/08/17 07:33:13;;;;;;;6.15;3.80;;;;;;;21.45;99.82;100831.16;6251466;28;20076;-78
2022/08/17 07:36:24;;;;;;;4.13;3.30;;;;;;;21.52;98.94;100833.06;6251119;28;20049;-79
2022/08/17 07:39:26;;;;;;;4.88;3.78;;;;;;;21.59;98.35;100829.78;6251437;28;20172;-78
2022/08/17 07:42:28;;;;;;;10.15;4.70;;;;;;;21.65;98.60;100830.00;6248383;28;20045;-78
2022/08/17 07:48:53;;;;;;;6.35;3.95;;;;;;;21.83;95.98;100840.72;6250927;28;20053;-78
2022/08/17 07:52:01;;;;;;;5.88;3.75;;;;;;;21.92;96.27;100836.31;6250963;28;20072;-78
2022/08/17 07:55:28;;;;;;;4.72;3.60;;;;;;;22.01;95.61;100836.22;6251012;28;20412;-78
2022/08/17 07:58:29;;;;;;;5.95;3.83;;;;;;;22.12;95.67;100840.53;6250736;28;20085;-78
2022/08/17 08:01:31;;;;;;;6.72;3.38;;;;;;;22.21;95.66;100846.78;6250870;28;20057;-79
2022/08/17 08:04:36;;;;;;;7.30;3.03;;;;;;;22.31;95.76;100847.56;6250704;28;20508;-78
2022/08/17 08:07:43;;;;;;;4.38;3.38;;;;;;;22.40;94.62;100843.09;6250975;28;20056;-78
2022/08/17 08:10:58;;;;;;;6.57;3.83;;;;;;;22.53;93.59;100839.00;6250373;28;20128;-78
2022/08/17 08:14:23;;;;;;;5.95;3.50;;;;;;;22.66;92.68;100835.06;6251103;28;20140;-79
2022/08/17 08:17:34;;;;;;;4.22;3.00;;;;;;;22.84;90.29;100845.72;6250351;28;20050;-78
2022/08/17 08:20:48;;;;;;;5.40;3.33;;;;;;;22.89;90.25;100846.97;6250370;28;20140;-78
2022/08/17 08:23:58;;;;;;;4.80;2.97;;;;;;;22.96;89.21;100852.50;6250270;28;20049;-78
2022/08/17 08:27:14;;;;;;;11.07;5.38;;;;;;;23.07;88.13;100848.69;6249986;28;20139;-79
2022/08/17 08:30:20;;;;;;;14.68;8.43;;;;;;;23.19;87.16;100850.09;6238618;28;20046;-78
2022/08/17 08:33:31;;;;;;;6.28;3.13;;;;;;;23.25;85.62;100849.44;6231167;28;20046;-78
2022/08/17 08:36:53;;;;;;;3.35;2.65;;;;;;;23.34;84.84;100850.31;6237920;28;20081;-79
2022/08/17 08:39:58;;;;;;;3.22;2.60;;;;;;;23.46;85.53;100847.19;6224943;28;20053;-78
2022/08/17 08:43:11;;;;;;;3.67;2.67;;;;;;;23.50;83.79;100850.38;6225680;28;20060;-78
2022/08/17 08:46:24;;;;;;;4.95;2.58;;;;;;;23.57;81.26;100851.41;6231723;28;20049;-78
2022/08/17 08:49:39;;;;;;;3.72;2.85;;;;;;;23.69;80.36;100849.28;6240170;28;20056;-79
2022/08/17 08:53:02;;;;;;;4.18;2.58;;;;;;;23.76;81.46;100858.38;6240902;28;20045;-78
2022/08/17 08:56:11;;;;;;;3.80;2.60;;;;;;;23.86;78.83;100856.38;6245507;28;20068;-78
2022/08/17 08:59:24;;;;;;;7.03;2.70;;;;;;;23.97;77.96;100856.03;6250108;28;20045;-77
2022/08/17 09:02:46;;;;;;;5.68;2.65;;;;;;;24.05;76.68;100858.72;6249021;28;20124;-79
2022/08/17 09:06:05;;;;;;;3.35;2.63;;;;;;;24.11;78.19;100864.44;6226090;28;20041;-78
2022/08/17 09:09:17;;;;;;;;;;;;;;;24.17;77.94;100867.31;6226923;28;20056;-77
2022/08/17 09:12:28;;;;;;;2.97;2.47;;;;;;;24.17;77.95;100861.94;6226285;28;19921;-79
2022/08/17 09:15:36;;;;;;;5.05;2.40;;;;;;;24.15;78.37;100855.88;6224547;28;20389;-77
2022/08/17 09:18:42;;;;;;;3.80;2.55;;;;;;;24.16;77.54;100859.41;6225952;28;20060;-78
2022/08/17 09:21:51;;;;;;;7.05;4.03;;;;;;;24.19;77.60;100861.75;6225733;28;20068;-79
2022/08/17 09:24:59;;;;;;;3.47;2.55;;;;;;;24.26;76.93;100869.00;6225553;28;20095;-78
2022/08/17 09:28:04;;;;;;;3.95;2.25;;;;;;;24.33;74.86;100871.84;6226075;28;20113;-78
2022/08/17 09:31:09;;;;;;;5.05;3.00;;;;;;;24.37;74.34;100872.38;6225628;28;20046;-78
2022/08/17 09:34:15;;;;;;;3.65;2.28;;;;;;;24.41;74.72;100871.88;6226368;28;20049;-78
2022/08/17 09:37:22;;;;;;;2.83;2.50;;;;;;;24.50;74.84;100868.16;6231161;28;20549;-78
2022/08/17 09:40:29;;;;;;;3.97;2.20;;;;;;;24.57;74.92;100870.16;6250545;28;20049;-78
2022/08/17 09:43:38;;;;;;;5.60;2.33;;;;;;;24.69;74.03;100860.75;6249284;28;20382;-78
2022/08/17 09:46:47;;;;;;;3.80;2.20;;;;;;;24.72;73.62;100866.63;6249189;28;20049;-77
2022/08/17 09:49:53;;;;;;;3.28;2.05;;;;;;;24.77;72.48;100858.88;6250823;28;20056;-79
2022/08/17 09:52:58;;;;;;;2.47;1.98;;;;;;;24.85;71.03;100858.03;6250016;28;20049;-77
2022/08/17 09:56:13;;;;;;;2.25;1.92;;;;;;;25.01;71.91;100857.13;6250045;28;20053;-78
2022/08/17 09:59:26;;;;;;;2.92;1.92;;;;;;;25.13;70.73;100858.47;6249945;28;20049;-79
2022/08/17 10:02:49;;;;;;;4.38;2.25;;;;;;;25.40;70.94;100845.59;6249938;28;20182;-77
2022/08/17 10:05:55;;;;;;;3.63;2.85;;;;;;;25.70;67.87;100842.03;6249815;28;20060;-78
2022/08/17 10:09:06;;;;;;;2.65;1.92;;;;;;;25.84;66.65;100840.44;6250172;28;20062;-78
2022/08/17 10:12:23;;;;;;;4.70;2.22;;;;;;;26.01;66.35;100839.31;6250105;28;20052;-79
2022/08/17 10:15:42;;;;;;;3.58;2.47;;;;;;;26.06;65.52;100833.38;6250700;28;20052;-78
2022/08/17 10:18:46;;;;;;;;;;;;;;;26.04;65.57;100830.03;6249708;28;20065;-79
2022/08/17 10:28:43;;;;;;;3.45;1.75;;;;;;;26.30;60.71;100832.34;6250638;28;20455;-78
2022/08/17 10:31:48;;;;;;;1.95;1.52;;;;;;;26.64;58.29;100831.03;6253570;28;20050;-79
2022/08/17 10:35:25;;;;;;;2.53;1.67;;;;;;;26.84;56.80;100826.75;6254068;28;20504;-77
2022/08/17 10:38:33;;;;;;;2.47;1.77;;;;;;;26.98;56.53;100828.63;6236281;28;20046;-78
2022/08/17 10:41:44;;;;;;;2.17;1.55;;;;;;;27.08;56.18;100820.25;6230000;28;20417;-80
2022/08/17 10:44:55;;;;;;;2.75;2.05;;;;;;;26.99;55.45;100821.38;6228980;28;20413;-79
2022/08/17 10:47:59;;;;;;;2.65;1.70;;;;;;;26.89;55.88;100818.97;6229131;28;20083;-78
2022/08/17 10:51:06;;;;;;;3.95;2.10;;;;;;;26.79;56.39;100813.81;6228943;28;20057;-78
2022/08/17 10:54:45;;;;;;;2.60;1.88;;;;;;;26.78;57.28;100824.81;6228406;28;20109;-79
2022/08/17 10:57:49;;;;;;;3.33;1.90;;;;;;;26.83;57.05;100819.69;6228263;28;20536;-79
2022/08/17 11:01:00;;;;;;;4.47;2.17;;;;;;;26.85;56.85;100809.56;6228204;28;20058;-78
2022/08/17 11:04:07;;;;;;;3.55;2.13;;;;;;;26.79;57.11;100808.44;6228367;28;20486;-78
2022/08/17 11:07:17;;;;;;;2.53;2.10;;;;;;;26.81;58.71;100813.66;6228726;28;20054;-79
2022/08/17 11:10:40;;;;;;;1.45;1.35;;;;;;;26.79;57.76;100811.13;6228550;28;20049;-78
2022/08/17 11:13:51;;;;;;;1.80;1.60;;;;;;;26.86;57.98;100805.84;6228378;28;20072;-79
2022/08/17 11:17:07;;;;;;;2.65;2.08;;;;;;;26.89;57.54;100808.19;6227849;28;20441;-79
2022/08/17 11:20:33;;;;;;;2.63;1.88;;;;;;;26.91;57.38;100803.41;6227562;28;20050;-78
2022/08/17 11:23:53;;;;;;;2.92;1.80;;;;;;;27.02;55.81;100802.09;6195429;28;20050;-79
2022/08/17 11:27:07;;;;;;;1.83;1.63;;;;;;;27.14;54.62;100808.72;6227290;28;20386;-79
2022/08/17 11:30:12;;;;;;;3.00;1.85;;;;;;;27.34;53.88;100808.94;6227354;28;20045;-78
2022/08/17 11:33:53;;;;;;;2.28;1.80;;;;;;;27.50;53.02;100799.78;6227589;28;20046;-78
2022/08/17 11:37:16;;;;;;;2.22;1.80;;;;;;;27.54;53.49;100801.09;6224311;28;20053;-78
2022/08/17 11:40:28;;;;;;;2.35;1.80;;;;;;;27.74;52.03;100795.91;6252257;28;20052;-78
2022/08/17 11:43:55;;;;;;;4.32;2.08;;;;;;;27.77;52.86;100792.84;6227847;28;20050;-78
2022/08/17 11:54:06;;;;;;;2.63;1.50;;;;;;;27.58;52.32;100782.66;6227411;28;20050;-79
2022/08/17 11:57:53;;;;;;;2.95;1.45;;;;;;;27.52;51.48;100784.22;6226344;28;20056;-79
2022/08/17 12:00:57;;;;;;;1.73;1.40;;;;;;;27.41;52.32;100782.88;6226940;28;20508;-79
2022/08/17 12:04:18;;;;;;;3.70;1.50;;;;;;;27.33;52.86;100788.38;6226371;28;20493;-79
2022/08/17 12:07:22;;;;;;;5.38;2.08;;;;;;;27.28;52.55;100788.97;6226623;28;20054;-80
2022/08/17 12:10:30;;;;;;;1.75;1.58;;;;;;;27.30;53.76;100791.50;6226845;28;20061;-78
2022/08/17 12:13:36;;;;;;;2.13;1.60;;;;;;;27.34;52.77;100786.53;6226920;28;20116;-79
2022/08/17 12:16:41;;;;;;;3.05;1.90;;;;;;;27.39;52.72;100793.03;6243422;28;20421;-79
2022/08/17 12:19:43;;;;;;;2.90;2.17;;;;;;;27.40;53.61;100796.56;6250588;28;20063;-78
2022/08/17 12:22:53;;;;;;;2.20;1.65;;;;;;;27.47;52.54;100792.91;6250703;28;20046;-79
2022/08/17 12:26:00;;;;;;;3.30;1.63;;;;;;;27.53;52.42;100792.16;6250594;28;20053;-78
2022/08/17 12:29:04;;;;;;;2.13;1.48;;;;;;;27.64;53.10;100790.81;6237926;28;20050;-78
2022/08/17 12:32:16;;;;;;;1.63;1.48;;;;;;;27.79;51.63;100790.75;6241041;28;20056;-78
2022/08/17 12:35:23;;;;;;;3.58;1.55;;;;;;;27.94;51.77;100788.00;6226038;28;20050;-79
2022/08/17 12:38:25;;;;;;;1.80;1.52;;;;;;;27.99;51.28;100782.84;6240330;28;20072;-79
2022/08/17 12:41:33;;;;;;;2.03;1.83;;;;;;;28.03;51.13;100773.31;6250362;28;20049;-78
2022/08/17 12:44:36;;;;;;;3.70;2.03;;;;;;;28.14;50.64;100771.94;6251012;28;20057;-78
2022/08/17 12:47:38;;;;;;;2.17;1.70;;;;;;;28.26;51.68;100773.09;6230977;28;20054;-79
2022/08/17 12:50:45;;;;;;;1.95;1.75;;;;;;;28.42;49.92;100763.84;6225771;28;20414;-78
2022/08/17 12:53:54;;;;;;;2.75;1.77;;;;;;;28.46;50.35;100760.56;6226714;28;20516;-78
2022/08/17 12:56:55;;;;;;;2.25;1.90;;;;;;;28.35;49.93;100761.13;6226377;28;20057;-79
2022/08/17 13:00:00;;;;;;;2.50;1.80;;;;;;;28.25;50.74;100771.41;6225880;28;20137;-78
2022/08/17 13:03:07;;;;;;;1.90;1.77;;;;;;;28.14;50.61;100759.28;6232677;28;20052;-78
2022/08/17 13:06:13;;;;;;;2.17;1.70;;;;;;;28.17;49.78;100758.88;6250339;28;20076;-78
2022/08/17 13:09:19;;;;;;;2.08;1.77;;;;;;;28.23;50.89;100752.69;6251059;28;20131;-77
2022/08/17 13:12:30;;;;;;;1.98;1.50;;;;;;;28.25;50.34;100752.47;6250198;28;20042;-79
2022/08/17 13:15:37;;;;;;;5.00;1.70;;;;;;;28.27;50.17;100751.25;6250392;28;20497;-79
2022/08/17 13:18:42;;;;;;;3.22;1.75;;;;;;;28.26;49.58;100749.59;6227590;28;20050;-78
2022/08/17 13:21:47;;;;;;;2.50;1.80;;;;;;;28.21;49.28;100743.94;6226715;28;20046;-79
2022/08/17 13:24:53;;;;;;;2.40;1.70;;;;;;;28.13;49.67;100746.78;6225862;28;20561;-78
2022/08/17 13:27:55;;;;;;;2.30;1.77;;;;;;;28.03;49.65;100749.00;6226441;28;20081;-78
2022/08/17 13:31:21;;;;;;;3.05;1.58;;;;;;;27.95;50.17;100744.56;6225371;28;20042;-78
2022/08/17 13:34:43;;;;;;;2.75;1.83;;;;;;;27.96;50.01;100748.13;6224938;28;20180;-79
2022/08/17 13:37:57;;;;;;;2.83;1.45;;;;;;;27.93;49.86;100743.91;6213714;28;20058;-79
2022/08/17 13:40:58;;;;;;;5.18;1.63;;;;;;;27.86;50.71;100739.50;6226461;28;20072;-79
2022/08/17 13:44:00;;;;;;;1.77;1.60;;;;;;;27.79;51.28;100736.75;6225760;28;20056;-79
2022/08/17 13:47:03;;;;;;;2.70;1.60;;;;;;;27.77;51.45;100736.13;6226766;28;20052;-78
2022/08/17 13:50:19;;;;;;;4.45;1.75;;;;;;;27.75;52.44;100730.91;6228400;28;20050;-79
2022/08/17 13:53:24;;;;;;;2.35;1.50;;;;;;;27.80;53.02;100736.56;6228174;28;20053;-77
2022/08/17 13:56:35;;;;;;;4.57;1.48;;;;;;;27.89;51.27;100733.69;6228710;28;20053;-78
2022/08/17 13:59:41;;;;;;;2.92;1.75;;;;;;;27.93;50.86;100732.28;6227024;28;20409;-77
2022/08/17 14:02:42;;;;;;;1.75;1.48;;;;;;;28.00;50.45;100725.91;6227043;28;20050;-78
2022/08/17 14:05:46;;;;;;;2.88;1.45;;;;;;;28.25;50.78;100720.91;6227606;28;20054;-78
2022/08/17 14:08:47;;;;;;;2.00;1.75;;;;;;;28.47;50.51;100715.41;6228533;28;20057;-78
2022/08/17 14:11:51;;;;;;;2.30;1.70;;;;;;;28.50;49.29;100715.88;6227522;28;20050;-78
2022/08/17 14:14:55;;;;;;;2.13;1.52;;;;;;;28.46;49.51;100711.88;6227141;28;20050;-78
2022/08/17 14:17:56;;;;;;;1.88;1.45;;;;;;;28.39;49.72;100718.28;6226554;28;20096;-79
2022/08/17 14:20:59;;;;;;;2.42;1.40;;;;;;;28.33;50.10;100719.88;6227537;28;20060;-77
2022/08/17 14:24:00;;;;;;;1.52;1.35;;;;;;;28.21;50.31;100710.69;6228358;28;20143;-78
2022/08/17 14:27:04;;;;;;;2.35;1.50;;;;;;;28.16;49.65;100715.81;6227164;28;20053;-77
2022/08/17 14:30:06;;;;;;;2.47;1.55;;;;;;;28.13;49.31;100711.66;6227117;28;20046;-78
2022/08/17 14:33:08;;;;;;;1.80;1.45;;;;;;;28.08;49.82;100708.72;6227776;28;20610;-78
2022/08/17 14:36:11;;;;;;;2.08;1.60;;;;;;;28.02;50.63;100713.06;6226247;28;20053;-77
2022/08/17 14:39:13;;;;;;;1.48;1.30;;;;;;;27.97;51.61;100706.53;6227120;28;20062;-78
2022/08/17 14:42:17;;;;;;;1.70;1.45;;;;;;;28.00;49.35;100701.59;6226346;28;20076;-78
2022/08/17 14:45:18;;;;;;;1.83;1.42;;;;;;;28.04;50.01;100704.75;6229558;28;20038;-78
2022/08/17 14:48:20;;;;;;;1.50;1.35;;;;;;;28.02;50.05;100704.94;6241235;28;20056;-78
2022/08/17 14:51:24;;;;;;;2.78;1.50;;;;;;;28.03;49.79;100709.31;6237181;28;20413;-77
2022/08/17 14:54:26;;;;;;;3.85;1.60;;;;;;;28.03;49.97;100712.03;6249965;28;20052;-77
2022/08/17 14:57:27;;;;;;;2.10;1.65;;;;;;;27.99;49.94;100708.03;6245136;28;20041;-78